ATV502 LEPP-GCFV
Flight info
| Callsign | ATV502 |
|---|---|
| Flight time | 3h 36m |
| Altitude | 23000 |
| Route | NOLSA N10 BAN N857 HIJ N10 SVL N857 KORNO UN857 TERTO |
| Aircraft | DH8D/M-SDGIRWY/S |
Departure
| Time | 2026-05-06 14:38 |
|---|---|
| Airport | Pamplona Airport (LEPP) |
Arrival
| Time | 2026-05-06 18:15 |
|---|---|
| Airport | Fuerteventura Airport (GCFV) |
| Time | Latitude | Longitude | Altitude | Speed | Heading |
|---|---|---|---|---|---|
| 2026-05-06 14:12 | 42.76810 | -1.64129 | 1512 ft | 0 kts | 352° |
| 2026-05-06 14:34 | 42.76812 | -1.64130 | 1512 ft | 2 kts | 346° |
| 2026-05-06 14:34 | 42.76817 | -1.64162 | 1512 ft | 6 kts | 238° |
| 2026-05-06 14:35 | 42.76761 | -1.64155 | 1512 ft | 9 kts | 153° |
| 2026-05-06 14:35 | 42.76745 | -1.64143 | 1512 ft | 4 kts | 153° |
| 2026-05-06 14:35 | 42.76703 | -1.64115 | 1512 ft | 9 kts | 155° |
| 2026-05-06 14:35 | 42.76622 | -1.64104 | 1512 ft | 11 kts | 159° |
| 2026-05-06 14:36 | 42.76552 | -1.64100 | 1512 ft | 6 kts | 205° |
| 2026-05-06 14:36 | 42.76533 | -1.64121 | 1512 ft | 0 kts | 231° |
| 2026-05-06 14:37 | 42.76527 | -1.64133 | 1512 ft | 5 kts | 233° |
| 2026-05-06 14:37 | 42.76486 | -1.64207 | 1512 ft | 13 kts | 220° |
| 2026-05-06 14:37 | 42.76492 | -1.64253 | 1512 ft | 9 kts | 331° |
| 2026-05-06 14:38 | 42.76742 | -1.64442 | 1512 ft | 74 kts | 331° |
| 2026-05-06 14:38 | 42.77373 | -1.64903 | 1512 ft | 130 kts | 332° |
| 2026-05-06 14:38 | 42.78246 | -1.65549 | 1821 ft | 140 kts | 330° |
| 2026-05-06 14:38 | 42.79096 | -1.66242 | 2411 ft | 139 kts | 328° |
| 2026-05-06 14:39 | 42.79997 | -1.66942 | 2858 ft | 151 kts | 330° |
| 2026-05-06 14:39 | 42.80984 | -1.67658 | 3192 ft | 167 kts | 332° |
| 2026-05-06 14:39 | 42.82047 | -1.68414 | 3614 ft | 177 kts | 332° |
| 2026-05-06 14:39 | 42.83187 | -1.69219 | 4123 ft | 182 kts | 332° |
| 2026-05-06 14:40 | 42.84315 | -1.70018 | 4639 ft | 186 kts | 332° |
| 2026-05-06 14:40 | 42.85468 | -1.70839 | 5170 ft | 188 kts | 331° |
| 2026-05-06 14:40 | 42.86626 | -1.71669 | 5725 ft | 190 kts | 331° |
| 2026-05-06 14:40 | 42.87773 | -1.72638 | 6357 ft | 192 kts | 315° |
| 2026-05-06 14:41 | 42.88377 | -1.74269 | 6816 ft | 206 kts | 279° |
| 2026-05-06 14:41 | 42.88140 | -1.76257 | 7137 ft | 225 kts | 245° |
| 2026-05-06 14:41 | 42.87173 | -1.78036 | 7483 ft | 238 kts | 229° |
| 2026-05-06 14:41 | 42.86054 | -1.79702 | 7859 ft | 243 kts | 231° |
| 2026-05-06 14:42 | 42.85043 | -1.81560 | 8265 ft | 245 kts | 238° |
| 2026-05-06 14:42 | 42.84190 | -1.83567 | 8679 ft | 246 kts | 243° |
| 2026-05-06 14:42 | 42.83412 | -1.85655 | 9089 ft | 247 kts | 245° |
| 2026-05-06 14:42 | 42.82679 | -1.87791 | 9489 ft | 248 kts | 247° |
| 2026-05-06 14:43 | 42.81990 | -1.89941 | 9882 ft | 249 kts | 246° |
| 2026-05-06 14:43 | 42.80867 | -1.91751 | 10246 ft | 255 kts | 216° |
| 2026-05-06 14:43 | 42.79172 | -1.92569 | 10612 ft | 262 kts | 186° |
| 2026-05-06 14:43 | 42.77379 | -1.92197 | 10972 ft | 266 kts | 162° |
| 2026-05-06 14:44 | 42.75682 | -1.91282 | 11306 ft | 268 kts | 159° |
| 2026-05-06 14:44 | 42.73904 | -1.90518 | 11628 ft | 268 kts | 168° |
| 2026-05-06 14:44 | 42.72062 | -1.90120 | 11966 ft | 268 kts | 176° |
| 2026-05-06 14:45 | 42.68319 | -1.89892 | 12617 ft | 269 kts | 181° |
| 2026-05-06 14:45 | 42.66544 | -1.89885 | 12908 ft | 270 kts | 182° |
| 2026-05-06 14:45 | 42.64641 | -1.89925 | 13209 ft | 271 kts | 183° |
| 2026-05-06 14:45 | 42.62741 | -1.89998 | 13504 ft | 272 kts | 184° |
| 2026-05-06 14:46 | 42.60834 | -1.90086 | 13796 ft | 273 kts | 184° |
| 2026-05-06 14:46 | 42.58929 | -1.90170 | 14081 ft | 275 kts | 184° |
| 2026-05-06 14:46 | 42.57021 | -1.90251 | 14361 ft | 276 kts | 184° |
| 2026-05-06 14:46 | 42.55093 | -1.90325 | 14635 ft | 277 kts | 184° |
| 2026-05-06 14:47 | 42.53159 | -1.90392 | 14903 ft | 278 kts | 184° |
| 2026-05-06 14:47 | 42.51226 | -1.90456 | 15159 ft | 279 kts | 184° |
| 2026-05-06 14:47 | 42.49296 | -1.90520 | 15410 ft | 280 kts | 184° |
| 2026-05-06 14:47 | 42.47343 | -1.90586 | 15669 ft | 281 kts | 184° |
| 2026-05-06 14:48 | 42.45392 | -1.90651 | 15913 ft | 282 kts | 184° |
| 2026-05-06 14:48 | 42.43435 | -1.90800 | 16145 ft | 281 kts | 191° |
| 2026-05-06 14:48 | 42.41567 | -1.91498 | 16372 ft | 278 kts | 205° |
| 2026-05-06 14:48 | 42.39786 | -1.92624 | 16621 ft | 278 kts | 210° |
| 2026-05-06 14:49 | 42.38052 | -1.93821 | 16843 ft | 279 kts | 210° |
| 2026-05-06 14:49 | 42.36326 | -1.95010 | 17059 ft | 280 kts | 210° |
| 2026-05-06 14:49 | 42.34597 | -1.96183 | 17269 ft | 281 kts | 209° |
| 2026-05-06 14:49 | 42.32847 | -1.97356 | 17490 ft | 282 kts | 209° |
| 2026-05-06 14:50 | 42.31084 | -1.98527 | 17706 ft | 282 kts | 209° |
| 2026-05-06 14:50 | 42.29316 | -1.99700 | 17914 ft | 283 kts | 209° |
| 2026-05-06 14:50 | 42.27542 | -2.00877 | 18118 ft | 284 kts | 209° |
| 2026-05-06 14:50 | 42.25773 | -2.02053 | 18316 ft | 285 kts | 209° |
| 2026-05-06 14:51 | 42.23993 | -2.03233 | 18507 ft | 286 kts | 209° |
| 2026-05-06 14:51 | 42.22206 | -2.04415 | 18695 ft | 288 kts | 209° |
| 2026-05-06 14:51 | 42.20411 | -2.05601 | 18876 ft | 289 kts | 209° |
| 2026-05-06 14:51 | 42.18597 | -2.06797 | 19056 ft | 290 kts | 209° |
| 2026-05-06 14:52 | 42.16798 | -2.07984 | 19231 ft | 291 kts | 209° |
| 2026-05-06 14:52 | 42.14947 | -2.09205 | 19405 ft | 292 kts | 209° |
| 2026-05-06 14:52 | 42.13125 | -2.10413 | 19577 ft | 293 kts | 209° |
| 2026-05-06 14:52 | 42.11298 | -2.11624 | 19741 ft | 294 kts | 209° |
| 2026-05-06 14:53 | 42.09468 | -2.12835 | 19903 ft | 295 kts | 209° |
| 2026-05-06 14:53 | 42.07622 | -2.14054 | 20062 ft | 296 kts | 209° |
| 2026-05-06 14:53 | 42.05773 | -2.15273 | 20215 ft | 297 kts | 209° |
| 2026-05-06 14:53 | 42.03913 | -2.16497 | 20368 ft | 298 kts | 209° |
| 2026-05-06 14:54 | 42.02053 | -2.17720 | 20517 ft | 299 kts | 209° |
| 2026-05-06 14:54 | 42.00186 | -2.18945 | 20660 ft | 300 kts | 209° |
| 2026-05-06 14:54 | 41.98318 | -2.20172 | 20803 ft | 301 kts | 209° |
| 2026-05-06 14:54 | 41.96436 | -2.21407 | 20949 ft | 301 kts | 209° |
| 2026-05-06 14:55 | 41.94556 | -2.22640 | 21088 ft | 302 kts | 209° |
| 2026-05-06 14:55 | 41.92667 | -2.23877 | 21226 ft | 303 kts | 209° |
| 2026-05-06 14:55 | 41.90774 | -2.25117 | 21362 ft | 304 kts | 209° |
| 2026-05-06 14:55 | 41.89491 | -2.25954 | 21454 ft | 304 kts | 209° |
| 2026-05-06 14:56 | 41.87593 | -2.27192 | 21582 ft | 305 kts | 209° |
| 2026-05-06 14:56 | 41.85674 | -2.28445 | 21711 ft | 306 kts | 209° |
| 2026-05-06 14:56 | 41.83768 | -2.29691 | 21841 ft | 307 kts | 209° |
| 2026-05-06 14:56 | 41.81849 | -2.30946 | 21963 ft | 307 kts | 209° |
| 2026-05-06 14:57 | 41.79932 | -2.32200 | 22077 ft | 308 kts | 209° |
| 2026-05-06 14:57 | 41.78012 | -2.33454 | 22205 ft | 308 kts | 209° |
| 2026-05-06 14:57 | 41.76046 | -2.34736 | 22328 ft | 309 kts | 209° |
| 2026-05-06 14:57 | 41.74143 | -2.35975 | 22446 ft | 310 kts | 209° |
| 2026-05-06 14:58 | 41.72165 | -2.37264 | 22565 ft | 310 kts | 209° |
| 2026-05-06 14:58 | 41.70281 | -2.38492 | 22676 ft | 311 kts | 209° |
| 2026-05-06 14:58 | 41.68343 | -2.39749 | 22791 ft | 311 kts | 209° |
| 2026-05-06 14:58 | 41.66403 | -2.41005 | 22889 ft | 312 kts | 209° |
| 2026-05-06 14:59 | 41.64460 | -2.42263 | 22949 ft | 315 kts | 209° |
| 2026-05-06 14:59 | 41.62586 | -2.43478 | 22975 ft | 318 kts | 209° |
| 2026-05-06 14:59 | 41.60631 | -2.44748 | 22985 ft | 321 kts | 209° |
| 2026-05-06 14:59 | 41.58607 | -2.46061 | 22989 ft | 324 kts | 209° |
| 2026-05-06 15:00 | 41.56644 | -2.47334 | 22990 ft | 327 kts | 209° |
| 2026-05-06 15:00 | 41.54615 | -2.48644 | 22990 ft | 330 kts | 208° |
| 2026-05-06 15:00 | 41.52571 | -2.49960 | 22989 ft | 332 kts | 208° |
| 2026-05-06 15:00 | 41.50498 | -2.51297 | 22989 ft | 334 kts | 209° |
| 2026-05-06 15:01 | 41.48377 | -2.52666 | 22988 ft | 335 kts | 209° |
| 2026-05-06 15:01 | 41.46271 | -2.54026 | 22987 ft | 336 kts | 209° |
| 2026-05-06 15:01 | 41.44158 | -2.55390 | 22985 ft | 338 kts | 209° |
| 2026-05-06 15:01 | 41.42068 | -2.56737 | 22983 ft | 338 kts | 208° |
| 2026-05-06 15:02 | 41.39956 | -2.58099 | 22982 ft | 339 kts | 208° |
| 2026-05-06 15:02 | 41.37830 | -2.59467 | 22981 ft | 340 kts | 208° |
| 2026-05-06 15:02 | 41.35694 | -2.60840 | 22980 ft | 340 kts | 208° |
| 2026-05-06 15:02 | 41.33562 | -2.62205 | 22980 ft | 341 kts | 208° |
| 2026-05-06 15:03 | 41.31466 | -2.63672 | 22978 ft | 339 kts | 214° |
| 2026-05-06 15:03 | 41.29487 | -2.65437 | 22979 ft | 338 kts | 218° |
| 2026-05-06 15:03 | 41.27598 | -2.67280 | 22978 ft | 338 kts | 219° |
| 2026-05-06 15:03 | 41.25696 | -2.69125 | 22977 ft | 338 kts | 218° |
| 2026-05-06 15:04 | 41.23785 | -2.70929 | 22976 ft | 339 kts | 218° |
| 2026-05-06 15:04 | 41.21821 | -2.72747 | 22975 ft | 339 kts | 217° |
| 2026-05-06 15:04 | 41.19860 | -2.74539 | 22974 ft | 339 kts | 217° |
| 2026-05-06 15:04 | 41.17905 | -2.76320 | 22973 ft | 339 kts | 217° |
| 2026-05-06 15:05 | 41.15972 | -2.78086 | 22972 ft | 339 kts | 217° |
| 2026-05-06 15:05 | 41.13986 | -2.79905 | 22971 ft | 338 kts | 217° |
| 2026-05-06 15:05 | 41.12083 | -2.81651 | 22970 ft | 338 kts | 217° |
| 2026-05-06 15:05 | 41.10186 | -2.83391 | 22969 ft | 338 kts | 217° |
| 2026-05-06 15:06 | 41.08221 | -2.85192 | 22968 ft | 338 kts | 217° |
| 2026-05-06 15:06 | 41.06333 | -2.86919 | 22967 ft | 338 kts | 217° |
| 2026-05-06 15:06 | 41.04426 | -2.88657 | 22966 ft | 338 kts | 217° |
| 2026-05-06 15:06 | 41.02495 | -2.90416 | 22965 ft | 337 kts | 217° |
| 2026-05-06 15:07 | 41.00545 | -2.92195 | 22964 ft | 337 kts | 217° |
| 2026-05-06 15:07 | 40.98639 | -2.93934 | 22963 ft | 337 kts | 217° |
| 2026-05-06 15:07 | 40.96683 | -2.95720 | 22961 ft | 337 kts | 217° |
| 2026-05-06 15:07 | 40.94747 | -2.97484 | 22960 ft | 337 kts | 217° |
| 2026-05-06 15:08 | 40.92849 | -2.99209 | 22959 ft | 336 kts | 217° |
| 2026-05-06 15:08 | 40.90940 | -3.00940 | 22958 ft | 336 kts | 217° |
| 2026-05-06 15:08 | 40.88987 | -3.02711 | 22957 ft | 336 kts | 217° |
| 2026-05-06 15:08 | 40.87085 | -3.04437 | 22955 ft | 336 kts | 217° |
| 2026-05-06 15:09 | 40.85164 | -3.06182 | 22951 ft | 336 kts | 217° |
| 2026-05-06 15:09 | 40.83256 | -3.07910 | 22950 ft | 336 kts | 217° |
| 2026-05-06 15:09 | 40.81326 | -3.09657 | 22949 ft | 335 kts | 217° |
| 2026-05-06 15:09 | 40.79413 | -3.11390 | 22948 ft | 335 kts | 217° |
| 2026-05-06 15:10 | 40.77513 | -3.13111 | 22947 ft | 335 kts | 217° |
| 2026-05-06 15:10 | 40.75612 | -3.14828 | 22946 ft | 335 kts | 217° |
| 2026-05-06 15:10 | 40.73636 | -3.16611 | 22945 ft | 334 kts | 217° |
| 2026-05-06 15:10 | 40.71795 | -3.18272 | 22945 ft | 334 kts | 217° |
| 2026-05-06 15:11 | 40.69913 | -3.19972 | 22944 ft | 334 kts | 217° |
| 2026-05-06 15:11 | 40.68007 | -3.21689 | 22943 ft | 334 kts | 217° |
| 2026-05-06 15:11 | 40.66099 | -3.23406 | 22943 ft | 333 kts | 217° |
| 2026-05-06 15:11 | 40.64145 | -3.25165 | 22942 ft | 333 kts | 217° |
| 2026-05-06 15:12 | 40.62254 | -3.26866 | 22942 ft | 333 kts | 217° |
| 2026-05-06 15:12 | 40.60385 | -3.28545 | 22945 ft | 332 kts | 217° |
| 2026-05-06 15:12 | 40.59142 | -3.29661 | 22946 ft | 332 kts | 217° |
| 2026-05-06 15:12 | 40.56573 | -3.31968 | 22946 ft | 332 kts | 217° |
| 2026-05-06 15:13 | 40.55318 | -3.33094 | 22945 ft | 331 kts | 217° |
| 2026-05-06 15:13 | 40.53356 | -3.34852 | 22944 ft | 331 kts | 217° |
| 2026-05-06 15:13 | 40.51502 | -3.36512 | 22943 ft | 331 kts | 217° |
| 2026-05-06 15:13 | 40.49458 | -3.38343 | 22942 ft | 331 kts | 217° |
| 2026-05-06 15:14 | 40.47720 | -3.39897 | 22941 ft | 330 kts | 217° |
| 2026-05-06 15:14 | 40.45887 | -3.41535 | 22940 ft | 330 kts | 217° |
| 2026-05-06 15:14 | 40.43987 | -3.43233 | 22940 ft | 330 kts | 217° |
| 2026-05-06 15:14 | 40.42138 | -3.44885 | 22939 ft | 330 kts | 217° |
| 2026-05-06 15:15 | 40.40321 | -3.46508 | 22939 ft | 330 kts | 217° |
| 2026-05-06 15:15 | 40.38442 | -3.48185 | 22939 ft | 329 kts | 217° |
| 2026-05-06 15:15 | 40.36553 | -3.49867 | 22939 ft | 329 kts | 217° |
| 2026-05-06 15:15 | 40.34625 | -3.51580 | 22939 ft | 329 kts | 217° |
| 2026-05-06 15:16 | 40.32734 | -3.53261 | 22939 ft | 329 kts | 217° |
| 2026-05-06 15:16 | 40.30788 | -3.54994 | 22939 ft | 328 kts | 217° |
| 2026-05-06 15:16 | 40.28999 | -3.56583 | 22939 ft | 328 kts | 217° |
| 2026-05-06 15:16 | 40.27116 | -3.58253 | 22939 ft | 328 kts | 217° |
| 2026-05-06 15:17 | 40.25196 | -3.59956 | 22939 ft | 327 kts | 217° |
| 2026-05-06 15:17 | 40.23342 | -3.61599 | 22939 ft | 327 kts | 217° |
| 2026-05-06 15:17 | 40.21474 | -3.63253 | 22939 ft | 326 kts | 217° |
| 2026-05-06 15:17 | 40.19584 | -3.64925 | 22939 ft | 326 kts | 217° |
| 2026-05-06 15:18 | 40.17699 | -3.66594 | 22939 ft | 325 kts | 217° |
| 2026-05-06 15:18 | 40.15851 | -3.68229 | 22939 ft | 325 kts | 217° |
| 2026-05-06 15:18 | 40.14007 | -3.69858 | 22939 ft | 325 kts | 217° |
| 2026-05-06 15:18 | 40.12148 | -3.71497 | 22939 ft | 324 kts | 217° |
| 2026-05-06 15:19 | 40.10264 | -3.73160 | 22939 ft | 324 kts | 217° |
| 2026-05-06 15:19 | 40.08400 | -3.74806 | 22939 ft | 324 kts | 217° |
| 2026-05-06 15:19 | 40.06570 | -3.76423 | 22939 ft | 324 kts | 217° |
| 2026-05-06 15:19 | 40.04756 | -3.78024 | 22939 ft | 323 kts | 217° |
| 2026-05-06 15:20 | 40.02882 | -3.79678 | 22939 ft | 323 kts | 217° |
| 2026-05-06 15:20 | 40.00998 | -3.81336 | 22939 ft | 323 kts | 217° |
| 2026-05-06 15:20 | 39.99224 | -3.82893 | 22939 ft | 323 kts | 217° |
| 2026-05-06 15:20 | 39.97339 | -3.84548 | 22939 ft | 322 kts | 217° |
| 2026-05-06 15:21 | 39.95497 | -3.86165 | 22939 ft | 322 kts | 217° |
| 2026-05-06 15:21 | 39.93639 | -3.87802 | 22938 ft | 322 kts | 217° |
| 2026-05-06 15:21 | 39.91791 | -3.89444 | 22938 ft | 322 kts | 217° |
| 2026-05-06 15:21 | 39.89966 | -3.91057 | 22938 ft | 322 kts | 217° |
| 2026-05-06 15:22 | 39.88064 | -3.92717 | 22938 ft | 322 kts | 217° |
| 2026-05-06 15:22 | 39.86224 | -3.94313 | 22938 ft | 322 kts | 216° |
| 2026-05-06 15:22 | 39.84346 | -3.95941 | 22937 ft | 322 kts | 216° |
| 2026-05-06 15:22 | 39.82462 | -3.97578 | 22937 ft | 322 kts | 217° |
| 2026-05-06 15:23 | 39.80626 | -3.99178 | 22937 ft | 322 kts | 217° |
| 2026-05-06 15:23 | 39.78755 | -4.00811 | 22937 ft | 322 kts | 217° |
| 2026-05-06 15:23 | 39.76898 | -4.02431 | 22937 ft | 323 kts | 217° |
| 2026-05-06 15:23 | 39.75054 | -4.04039 | 22936 ft | 323 kts | 217° |
| 2026-05-06 15:24 | 39.73155 | -4.05693 | 22936 ft | 323 kts | 217° |
| 2026-05-06 15:24 | 39.71289 | -4.07319 | 22936 ft | 323 kts | 217° |
| 2026-05-06 15:24 | 39.70066 | -4.08383 | 22936 ft | 323 kts | 217° |
| 2026-05-06 15:24 | 39.67615 | -4.10517 | 22935 ft | 323 kts | 217° |
| 2026-05-06 15:25 | 39.65755 | -4.12138 | 22935 ft | 323 kts | 217° |
| 2026-05-06 15:25 | 39.63932 | -4.13726 | 22935 ft | 323 kts | 217° |
| 2026-05-06 15:25 | 39.62096 | -4.15322 | 22934 ft | 323 kts | 217° |
| 2026-05-06 15:25 | 39.60234 | -4.16936 | 22934 ft | 323 kts | 216° |
| 2026-05-06 15:26 | 39.58360 | -4.18557 | 22934 ft | 323 kts | 216° |
| 2026-05-06 15:26 | 39.57119 | -4.19630 | 22934 ft | 323 kts | 216° |
| 2026-05-06 15:26 | 39.55229 | -4.21264 | 22933 ft | 323 kts | 216° |
| 2026-05-06 15:26 | 39.53342 | -4.22895 | 22932 ft | 323 kts | 216° |
| 2026-05-06 15:27 | 39.51501 | -4.24485 | 22931 ft | 323 kts | 216° |
| 2026-05-06 15:27 | 39.49649 | -4.26087 | 22931 ft | 323 kts | 216° |
| 2026-05-06 15:27 | 39.47777 | -4.27705 | 22930 ft | 323 kts | 216° |
| 2026-05-06 15:27 | 39.45905 | -4.29321 | 22930 ft | 323 kts | 216° |
| 2026-05-06 15:28 | 39.44029 | -4.30938 | 22929 ft | 323 kts | 216° |
| 2026-05-06 15:28 | 39.42181 | -4.32529 | 22928 ft | 323 kts | 216° |
| 2026-05-06 15:28 | 39.40305 | -4.34142 | 22928 ft | 323 kts | 216° |
| 2026-05-06 15:28 | 39.38426 | -4.35756 | 22927 ft | 323 kts | 216° |
| 2026-05-06 15:29 | 39.36568 | -4.37351 | 22926 ft | 323 kts | 216° |
| 2026-05-06 15:29 | 39.34660 | -4.38989 | 22926 ft | 323 kts | 216° |
| 2026-05-06 15:29 | 39.32801 | -4.40585 | 22925 ft | 323 kts | 216° |
| 2026-05-06 15:29 | 39.31046 | -4.42091 | 22924 ft | 323 kts | 216° |
| 2026-05-06 15:30 | 39.29183 | -4.43690 | 22924 ft | 323 kts | 216° |
| 2026-05-06 15:30 | 39.27303 | -4.45303 | 22923 ft | 323 kts | 216° |
| 2026-05-06 15:30 | 39.25447 | -4.46892 | 22922 ft | 323 kts | 216° |
| 2026-05-06 15:30 | 39.23556 | -4.48510 | 22921 ft | 323 kts | 216° |
| 2026-05-06 15:31 | 39.21655 | -4.50134 | 22921 ft | 323 kts | 216° |
| 2026-05-06 15:31 | 39.19801 | -4.51718 | 22920 ft | 323 kts | 216° |
| 2026-05-06 15:31 | 39.17911 | -4.53334 | 22919 ft | 323 kts | 216° |
| 2026-05-06 15:32 | 39.14151 | -4.56547 | 22917 ft | 323 kts | 216° |
| 2026-05-06 15:32 | 39.12248 | -4.58172 | 22916 ft | 322 kts | 216° |
| 2026-05-06 15:32 | 39.10378 | -4.59765 | 22915 ft | 322 kts | 216° |
| 2026-05-06 15:32 | 39.08480 | -4.61380 | 22915 ft | 322 kts | 216° |
| 2026-05-06 15:33 | 39.06618 | -4.62962 | 22914 ft | 321 kts | 216° |
| 2026-05-06 15:33 | 39.04756 | -4.64544 | 22906 ft | 319 kts | 216° |
| 2026-05-06 15:33 | 39.02931 | -4.66093 | 22919 ft | 318 kts | 216° |
| 2026-05-06 15:33 | 39.01079 | -4.67665 | 22914 ft | 318 kts | 216° |
| 2026-05-06 15:34 | 38.99262 | -4.69208 | 22912 ft | 318 kts | 216° |
| 2026-05-06 15:34 | 38.97378 | -4.70809 | 22911 ft | 318 kts | 216° |
| 2026-05-06 15:34 | 38.95528 | -4.72382 | 22910 ft | 318 kts | 216° |
| 2026-05-06 15:34 | 38.93689 | -4.73946 | 22909 ft | 318 kts | 216° |
| 2026-05-06 15:35 | 38.91858 | -4.75500 | 22908 ft | 318 kts | 216° |
| 2026-05-06 15:35 | 38.90895 | -4.76313 | 22888 ft | 313 kts | 216° |
| 2026-05-06 15:35 | 38.89059 | -4.77863 | 22900 ft | 311 kts | 216° |
| 2026-05-06 15:35 | 38.87258 | -4.79382 | 22902 ft | 310 kts | 216° |
| 2026-05-06 15:36 | 38.85454 | -4.80904 | 22901 ft | 309 kts | 216° |
| 2026-05-06 15:36 | 38.83666 | -4.82412 | 22900 ft | 308 kts | 216° |
| 2026-05-06 15:36 | 38.81906 | -4.83896 | 22910 ft | 308 kts | 216° |
| 2026-05-06 15:36 | 38.80071 | -4.85445 | 22903 ft | 309 kts | 216° |
| 2026-05-06 15:37 | 38.78268 | -4.86966 | 22900 ft | 311 kts | 216° |
| 2026-05-06 15:37 | 38.76454 | -4.88495 | 22898 ft | 312 kts | 216° |
| 2026-05-06 15:37 | 38.74639 | -4.90021 | 22898 ft | 313 kts | 216° |
| 2026-05-06 15:37 | 38.72808 | -4.91558 | 22897 ft | 314 kts | 216° |
| 2026-05-06 15:38 | 38.70974 | -4.93098 | 22897 ft | 315 kts | 216° |
| 2026-05-06 15:38 | 38.69755 | -4.94121 | 22896 ft | 315 kts | 216° |
| 2026-05-06 15:38 | 38.67319 | -4.96164 | 22896 ft | 315 kts | 216° |
| 2026-05-06 15:38 | 38.66086 | -4.97198 | 22896 ft | 316 kts | 216° |
| 2026-05-06 15:39 | 38.64272 | -4.98720 | 22895 ft | 317 kts | 216° |
| 2026-05-06 15:39 | 38.62429 | -5.00265 | 22895 ft | 317 kts | 215° |
| 2026-05-06 15:39 | 38.60561 | -5.01830 | 22894 ft | 317 kts | 215° |
| 2026-05-06 15:39 | 38.58706 | -5.03381 | 22894 ft | 318 kts | 215° |
| 2026-05-06 15:40 | 38.56841 | -5.04940 | 22894 ft | 318 kts | 215° |
| 2026-05-06 15:40 | 38.55005 | -5.06473 | 22893 ft | 318 kts | 215° |
| 2026-05-06 15:40 | 38.53151 | -5.08020 | 22893 ft | 318 kts | 215° |
| 2026-05-06 15:40 | 38.51290 | -5.09568 | 22893 ft | 319 kts | 214° |
| 2026-05-06 15:41 | 38.49399 | -5.10962 | 22893 ft | 320 kts | 210° |
| 2026-05-06 15:41 | 38.47389 | -5.12225 | 22892 ft | 321 kts | 208° |
| 2026-05-06 15:41 | 38.45402 | -5.13417 | 22892 ft | 321 kts | 208° |
| 2026-05-06 15:41 | 38.43356 | -5.14646 | 22891 ft | 321 kts | 208° |
| 2026-05-06 15:42 | 38.41358 | -5.15866 | 22891 ft | 321 kts | 208° |
| 2026-05-06 15:42 | 38.39347 | -5.17111 | 22891 ft | 321 kts | 208° |
| 2026-05-06 15:42 | 38.37356 | -5.18353 | 22891 ft | 321 kts | 208° |
| 2026-05-06 15:42 | 38.35439 | -5.19549 | 22890 ft | 321 kts | 208° |
| 2026-05-06 15:43 | 38.33432 | -5.20798 | 22890 ft | 321 kts | 208° |
| 2026-05-06 15:43 | 38.31431 | -5.22040 | 22890 ft | 321 kts | 208° |
| 2026-05-06 15:43 | 38.29443 | -5.23271 | 22890 ft | 322 kts | 208° |
| 2026-05-06 15:43 | 38.27404 | -5.24529 | 22889 ft | 322 kts | 208° |
| 2026-05-06 15:44 | 38.25404 | -5.25764 | 22889 ft | 322 kts | 208° |
| 2026-05-06 15:44 | 38.23401 | -5.27002 | 22889 ft | 321 kts | 208° |
| 2026-05-06 15:44 | 38.21359 | -5.28265 | 22889 ft | 321 kts | 208° |
| 2026-05-06 15:44 | 38.19381 | -5.29487 | 22889 ft | 321 kts | 208° |
| 2026-05-06 15:45 | 38.17370 | -5.30729 | 22889 ft | 321 kts | 208° |
| 2026-05-06 15:45 | 38.15392 | -5.31949 | 22888 ft | 321 kts | 208° |
| 2026-05-06 15:45 | 38.13363 | -5.33199 | 22888 ft | 321 kts | 208° |
| 2026-05-06 15:45 | 38.11312 | -5.34463 | 22888 ft | 321 kts | 208° |
| 2026-05-06 15:46 | 38.09346 | -5.35674 | 22888 ft | 321 kts | 208° |
| 2026-05-06 15:46 | 38.07327 | -5.36915 | 22888 ft | 321 kts | 208° |
| 2026-05-06 15:46 | 38.05278 | -5.38173 | 22888 ft | 321 kts | 208° |
| 2026-05-06 15:46 | 38.03304 | -5.39385 | 22888 ft | 321 kts | 208° |
| 2026-05-06 15:47 | 38.01300 | -5.40614 | 22888 ft | 321 kts | 208° |
| 2026-05-06 15:47 | 37.99257 | -5.41867 | 22880 ft | 319 kts | 208° |
| 2026-05-06 15:47 | 37.97211 | -5.43121 | 22897 ft | 317 kts | 208° |
| 2026-05-06 15:47 | 37.95282 | -5.44303 | 22891 ft | 318 kts | 208° |
| 2026-05-06 15:48 | 37.93287 | -5.45527 | 22889 ft | 318 kts | 208° |
| 2026-05-06 15:48 | 37.91294 | -5.46749 | 22881 ft | 316 kts | 208° |
| 2026-05-06 15:48 | 37.89333 | -5.47948 | 22896 ft | 315 kts | 208° |
| 2026-05-06 15:48 | 37.87336 | -5.49168 | 22890 ft | 316 kts | 208° |
| 2026-05-06 15:49 | 37.85373 | -5.50366 | 22888 ft | 316 kts | 208° |
| 2026-05-06 15:49 | 37.83378 | -5.51584 | 22887 ft | 317 kts | 208° |
| 2026-05-06 15:49 | 37.81401 | -5.52790 | 22886 ft | 317 kts | 208° |
| 2026-05-06 15:49 | 37.80086 | -5.53592 | 22886 ft | 314 kts | 208° |
| 2026-05-06 15:50 | 37.78526 | -5.54540 | 22884 ft | 314 kts | 208° |
| 2026-05-06 15:50 | 37.76573 | -5.55731 | 22885 ft | 314 kts | 208° |
| 2026-05-06 15:50 | 37.74607 | -5.56929 | 22885 ft | 315 kts | 208° |
| 2026-05-06 15:50 | 37.72639 | -5.58127 | 22886 ft | 315 kts | 208° |
| 2026-05-06 15:51 | 37.70653 | -5.59336 | 22886 ft | 316 kts | 208° |
| 2026-05-06 15:51 | 37.68660 | -5.60548 | 22883 ft | 316 kts | 208° |
| 2026-05-06 15:51 | 37.66670 | -5.61756 | 22880 ft | 317 kts | 208° |
| 2026-05-06 15:51 | 37.65856 | -5.62250 | 22881 ft | 313 kts | 208° |
| 2026-05-06 15:52 | 37.63894 | -5.63439 | 22878 ft | 314 kts | 208° |
| 2026-05-06 15:52 | 37.62563 | -5.64247 | 22879 ft | 314 kts | 208° |
| 2026-05-06 15:52 | 37.60510 | -5.65492 | 22880 ft | 315 kts | 208° |
| 2026-05-06 15:52 | 37.58614 | -5.66642 | 22881 ft | 315 kts | 208° |
| 2026-05-06 15:53 | 37.56645 | -5.67835 | 22881 ft | 316 kts | 208° |
| 2026-05-06 15:53 | 37.54668 | -5.69032 | 22882 ft | 316 kts | 208° |
| 2026-05-06 15:53 | 37.52702 | -5.70221 | 22882 ft | 317 kts | 208° |
| 2026-05-06 15:53 | 37.50635 | -5.71470 | 22882 ft | 317 kts | 208° |
| 2026-05-06 15:54 | 37.48742 | -5.72615 | 22883 ft | 317 kts | 208° |
| 2026-05-06 15:54 | 37.46737 | -5.73827 | 22883 ft | 318 kts | 208° |
| 2026-05-06 15:54 | 37.44761 | -5.75020 | 22883 ft | 318 kts | 208° |
| 2026-05-06 15:54 | 37.42802 | -5.76307 | 22881 ft | 316 kts | 213° |
| 2026-05-06 15:55 | 37.41010 | -5.77968 | 22884 ft | 315 kts | 221° |
| 2026-05-06 15:55 | 37.39403 | -5.79747 | 22884 ft | 314 kts | 223° |
| 2026-05-06 15:55 | 37.37765 | -5.81573 | 22884 ft | 314 kts | 222° |
| 2026-05-06 15:55 | 37.36115 | -5.83363 | 22884 ft | 314 kts | 222° |
| 2026-05-06 15:56 | 37.34441 | -5.85145 | 22884 ft | 314 kts | 221° |
| 2026-05-06 15:56 | 37.32737 | -5.86945 | 22884 ft | 313 kts | 221° |
| 2026-05-06 15:56 | 37.31112 | -5.88662 | 22885 ft | 313 kts | 221° |
| 2026-05-06 15:56 | 37.29426 | -5.90446 | 22885 ft | 313 kts | 221° |
| 2026-05-06 15:57 | 37.27754 | -5.92222 | 22885 ft | 313 kts | 221° |
| 2026-05-06 15:57 | 37.26060 | -5.94022 | 22885 ft | 313 kts | 221° |
| 2026-05-06 15:57 | 37.24395 | -5.95789 | 22886 ft | 313 kts | 221° |
| 2026-05-06 15:57 | 37.22761 | -5.97519 | 22886 ft | 312 kts | 221° |
| 2026-05-06 15:58 | 37.21088 | -5.99289 | 22886 ft | 312 kts | 221° |
| 2026-05-06 15:58 | 37.19449 | -6.01023 | 22887 ft | 312 kts | 221° |
| 2026-05-06 15:58 | 37.17795 | -6.02778 | 22888 ft | 312 kts | 221° |
| 2026-05-06 15:58 | 37.16136 | -6.04539 | 22888 ft | 312 kts | 221° |
| 2026-05-06 15:59 | 37.14488 | -6.06280 | 22889 ft | 312 kts | 221° |
| 2026-05-06 15:59 | 37.12831 | -6.08026 | 22891 ft | 312 kts | 221° |
| 2026-05-06 15:59 | 37.11159 | -6.09787 | 22895 ft | 311 kts | 221° |
| 2026-05-06 15:59 | 37.09523 | -6.11509 | 22898 ft | 311 kts | 221° |
| 2026-05-06 16:00 | 37.07839 | -6.13283 | 22900 ft | 311 kts | 221° |
| 2026-05-06 16:00 | 37.06201 | -6.15012 | 22901 ft | 311 kts | 221° |
| 2026-05-06 16:00 | 37.04549 | -6.16754 | 22902 ft | 311 kts | 221° |
| 2026-05-06 16:00 | 37.02859 | -6.18532 | 22904 ft | 311 kts | 221° |
| 2026-05-06 16:01 | 37.01194 | -6.20281 | 22905 ft | 311 kts | 221° |
| 2026-05-06 16:01 | 36.99548 | -6.22009 | 22906 ft | 311 kts | 221° |
| 2026-05-06 16:01 | 36.97894 | -6.23745 | 22906 ft | 310 kts | 221° |
| 2026-05-06 16:01 | 36.96209 | -6.25513 | 22907 ft | 310 kts | 221° |
| 2026-05-06 16:02 | 36.94570 | -6.27233 | 22908 ft | 310 kts | 221° |
| 2026-05-06 16:02 | 36.92915 | -6.28972 | 22908 ft | 310 kts | 221° |
| 2026-05-06 16:02 | 36.91256 | -6.30714 | 22908 ft | 310 kts | 221° |
| 2026-05-06 16:02 | 36.89575 | -6.32474 | 22909 ft | 310 kts | 221° |
| 2026-05-06 16:03 | 36.87914 | -6.34212 | 22909 ft | 310 kts | 221° |
| 2026-05-06 16:03 | 36.86257 | -6.35941 | 22909 ft | 310 kts | 221° |
| 2026-05-06 16:03 | 36.84555 | -6.37718 | 22909 ft | 310 kts | 221° |
| 2026-05-06 16:03 | 36.82906 | -6.39440 | 22909 ft | 310 kts | 221° |
| 2026-05-06 16:04 | 36.81244 | -6.41176 | 22909 ft | 310 kts | 221° |
| 2026-05-06 16:04 | 36.79590 | -6.42903 | 22910 ft | 309 kts | 221° |
| 2026-05-06 16:04 | 36.77944 | -6.44620 | 22910 ft | 309 kts | 221° |
| 2026-05-06 16:04 | 36.76287 | -6.46347 | 22910 ft | 309 kts | 221° |
| 2026-05-06 16:05 | 36.74649 | -6.48054 | 22910 ft | 309 kts | 221° |
| 2026-05-06 16:05 | 36.72999 | -6.49777 | 22911 ft | 309 kts | 221° |
| 2026-05-06 16:05 | 36.71876 | -6.50948 | 22911 ft | 309 kts | 221° |
| 2026-05-06 16:05 | 36.69688 | -6.53224 | 22911 ft | 309 kts | 221° |
| 2026-05-06 16:06 | 36.68565 | -6.54389 | 22911 ft | 309 kts | 221° |
| 2026-05-06 16:06 | 36.66873 | -6.56145 | 22911 ft | 309 kts | 221° |
| 2026-05-06 16:06 | 36.65240 | -6.57839 | 22909 ft | 309 kts | 221° |
| 2026-05-06 16:06 | 36.63555 | -6.59586 | 22909 ft | 309 kts | 221° |
| 2026-05-06 16:07 | 36.61915 | -6.61286 | 22910 ft | 309 kts | 221° |
| 2026-05-06 16:07 | 36.60261 | -6.63001 | 22911 ft | 309 kts | 221° |
| 2026-05-06 16:07 | 36.58608 | -6.64713 | 22911 ft | 309 kts | 221° |
| 2026-05-06 16:07 | 36.56954 | -6.66426 | 22911 ft | 309 kts | 221° |
| 2026-05-06 16:08 | 36.55257 | -6.68183 | 22912 ft | 309 kts | 221° |
| 2026-05-06 16:08 | 36.53627 | -6.69867 | 22912 ft | 309 kts | 221° |
| 2026-05-06 16:08 | 36.51983 | -6.71565 | 22911 ft | 309 kts | 221° |
| 2026-05-06 16:08 | 36.50328 | -6.73276 | 22912 ft | 309 kts | 221° |
| 2026-05-06 16:09 | 36.48679 | -6.74979 | 22912 ft | 309 kts | 221° |
| 2026-05-06 16:09 | 36.47039 | -6.76675 | 22912 ft | 309 kts | 221° |
| 2026-05-06 16:09 | 36.45380 | -6.78392 | 22912 ft | 309 kts | 221° |
| 2026-05-06 16:09 | 36.43742 | -6.80087 | 22912 ft | 309 kts | 221° |
| 2026-05-06 16:10 | 36.42093 | -6.81789 | 22912 ft | 309 kts | 220° |
| 2026-05-06 16:10 | 36.40435 | -6.83496 | 22912 ft | 309 kts | 220° |
| 2026-05-06 16:10 | 36.38752 | -6.85226 | 22912 ft | 309 kts | 220° |
| 2026-05-06 16:10 | 36.37114 | -6.86908 | 22912 ft | 309 kts | 220° |
| 2026-05-06 16:11 | 36.35429 | -6.88635 | 22912 ft | 309 kts | 220° |
| 2026-05-06 16:11 | 36.33774 | -6.90333 | 22912 ft | 309 kts | 220° |
| 2026-05-06 16:11 | 36.32121 | -6.92030 | 22912 ft | 309 kts | 221° |
| 2026-05-06 16:11 | 36.30482 | -6.93712 | 22912 ft | 309 kts | 221° |
| 2026-05-06 16:12 | 36.28829 | -6.95408 | 22912 ft | 309 kts | 220° |
| 2026-05-06 16:12 | 36.27165 | -6.97114 | 22912 ft | 309 kts | 220° |
| 2026-05-06 16:12 | 36.25513 | -6.98806 | 22912 ft | 309 kts | 220° |
| 2026-05-06 16:12 | 36.23871 | -7.00486 | 22913 ft | 309 kts | 220° |
| 2026-05-06 16:13 | 36.22187 | -7.02208 | 22913 ft | 309 kts | 220° |
| 2026-05-06 16:13 | 36.20540 | -7.03892 | 22913 ft | 309 kts | 220° |
| 2026-05-06 16:13 | 36.18883 | -7.05584 | 22913 ft | 309 kts | 220° |
| 2026-05-06 16:13 | 36.17211 | -7.07291 | 22913 ft | 309 kts | 220° |
| 2026-05-06 16:14 | 36.15547 | -7.08989 | 22913 ft | 309 kts | 220° |
| 2026-05-06 16:14 | 36.13884 | -7.10683 | 22913 ft | 309 kts | 220° |
| 2026-05-06 16:14 | 36.12220 | -7.12376 | 22913 ft | 309 kts | 220° |
| 2026-05-06 16:14 | 36.10567 | -7.14059 | 22913 ft | 309 kts | 220° |
| 2026-05-06 16:15 | 36.08914 | -7.15741 | 22913 ft | 309 kts | 220° |
| 2026-05-06 16:15 | 36.07244 | -7.17442 | 22913 ft | 309 kts | 220° |
| 2026-05-06 16:15 | 36.05566 | -7.19150 | 22913 ft | 309 kts | 220° |
| 2026-05-06 16:15 | 36.03913 | -7.20832 | 22913 ft | 309 kts | 220° |
| 2026-05-06 16:16 | 36.02259 | -7.22514 | 22913 ft | 310 kts | 220° |
| 2026-05-06 16:16 | 36.00609 | -7.24190 | 22913 ft | 310 kts | 220° |
| 2026-05-06 16:16 | 35.98927 | -7.25895 | 22912 ft | 310 kts | 220° |
| 2026-05-06 16:16 | 35.97252 | -7.27589 | 22912 ft | 310 kts | 220° |
| 2026-05-06 16:17 | 35.95598 | -7.29259 | 22912 ft | 310 kts | 220° |
| 2026-05-06 16:17 | 35.93924 | -7.30952 | 22912 ft | 310 kts | 220° |
| 2026-05-06 16:17 | 35.92257 | -7.32641 | 22911 ft | 310 kts | 221° |
| 2026-05-06 16:17 | 35.90581 | -7.34341 | 22911 ft | 310 kts | 221° |
| 2026-05-06 16:18 | 35.88929 | -7.36015 | 22911 ft | 310 kts | 220° |
| 2026-05-06 16:18 | 35.87262 | -7.37700 | 22911 ft | 310 kts | 220° |
| 2026-05-06 16:18 | 35.85597 | -7.39382 | 22912 ft | 310 kts | 220° |
| 2026-05-06 16:18 | 35.83925 | -7.41071 | 22911 ft | 310 kts | 220° |
| 2026-05-06 16:19 | 35.82272 | -7.42737 | 22912 ft | 310 kts | 220° |
| 2026-05-06 16:19 | 35.80580 | -7.44436 | 22912 ft | 310 kts | 220° |
| 2026-05-06 16:19 | 35.78922 | -7.46094 | 22912 ft | 310 kts | 220° |
| 2026-05-06 16:19 | 35.77238 | -7.47774 | 22912 ft | 310 kts | 220° |
| 2026-05-06 16:20 | 35.75547 | -7.49459 | 22912 ft | 310 kts | 220° |
| 2026-05-06 16:20 | 35.73855 | -7.51144 | 22912 ft | 310 kts | 220° |
| 2026-05-06 16:20 | 35.72151 | -7.52841 | 22912 ft | 310 kts | 220° |
| 2026-05-06 16:20 | 35.70483 | -7.54502 | 22912 ft | 310 kts | 220° |
| 2026-05-06 16:21 | 35.68807 | -7.56169 | 22912 ft | 311 kts | 220° |
| 2026-05-06 16:21 | 35.67121 | -7.57844 | 22909 ft | 311 kts | 220° |
| 2026-05-06 16:21 | 35.65436 | -7.59519 | 22906 ft | 311 kts | 220° |
| 2026-05-06 16:21 | 35.63756 | -7.61190 | 22904 ft | 311 kts | 220° |
| 2026-05-06 16:22 | 35.62079 | -7.62857 | 22903 ft | 311 kts | 220° |
| 2026-05-06 16:22 | 35.60407 | -7.64519 | 22903 ft | 311 kts | 220° |
| 2026-05-06 16:22 | 35.58712 | -7.66201 | 22903 ft | 311 kts | 220° |
| 2026-05-06 16:22 | 35.57040 | -7.67860 | 22903 ft | 311 kts | 220° |
| 2026-05-06 16:23 | 35.55360 | -7.69525 | 22901 ft | 311 kts | 220° |
| 2026-05-06 16:23 | 35.53667 | -7.71202 | 22901 ft | 311 kts | 220° |
| 2026-05-06 16:23 | 35.51985 | -7.72866 | 22901 ft | 311 kts | 220° |
| 2026-05-06 16:23 | 35.50293 | -7.74541 | 22901 ft | 311 kts | 220° |
| 2026-05-06 16:24 | 35.48608 | -7.76207 | 22901 ft | 311 kts | 220° |
| 2026-05-06 16:24 | 35.46910 | -7.77885 | 22901 ft | 311 kts | 220° |
| 2026-05-06 16:24 | 35.45221 | -7.79552 | 22901 ft | 311 kts | 220° |
| 2026-05-06 16:24 | 35.43529 | -7.81223 | 22901 ft | 311 kts | 220° |
| 2026-05-06 16:25 | 35.41856 | -7.82873 | 22901 ft | 311 kts | 220° |
| 2026-05-06 16:25 | 35.40152 | -7.84558 | 22901 ft | 311 kts | 220° |
| 2026-05-06 16:25 | 35.38484 | -7.86223 | 22901 ft | 311 kts | 220° |
| 2026-05-06 16:25 | 35.36799 | -7.87914 | 22901 ft | 311 kts | 221° |
| 2026-05-06 16:26 | 35.35093 | -7.89626 | 22901 ft | 311 kts | 221° |
| 2026-05-06 16:26 | 35.33441 | -7.91283 | 22901 ft | 311 kts | 220° |
| 2026-05-06 16:26 | 35.31757 | -7.92967 | 22901 ft | 311 kts | 220° |
| 2026-05-06 16:26 | 35.30095 | -7.94633 | 22902 ft | 311 kts | 221° |
| 2026-05-06 16:27 | 35.28438 | -7.96294 | 22902 ft | 311 kts | 220° |
| 2026-05-06 16:27 | 35.26758 | -7.97977 | 22902 ft | 311 kts | 220° |
| 2026-05-06 16:27 | 35.25066 | -7.99664 | 22901 ft | 310 kts | 220° |
| 2026-05-06 16:27 | 35.23412 | -8.01311 | 22901 ft | 310 kts | 220° |
| 2026-05-06 16:28 | 35.22299 | -8.02415 | 22901 ft | 310 kts | 220° |
| 2026-05-06 16:28 | 35.20033 | -8.04661 | 22904 ft | 310 kts | 221° |
| 2026-05-06 16:28 | 35.18924 | -8.05762 | 22905 ft | 310 kts | 221° |
| 2026-05-06 16:28 | 35.17256 | -8.07422 | 22906 ft | 310 kts | 221° |
| 2026-05-06 16:29 | 35.15554 | -8.09116 | 22906 ft | 310 kts | 221° |
| 2026-05-06 16:29 | 35.13904 | -8.10756 | 22906 ft | 310 kts | 221° |
| 2026-05-06 16:29 | 35.12237 | -8.12411 | 22906 ft | 310 kts | 221° |
| 2026-05-06 16:29 | 35.10561 | -8.14074 | 22907 ft | 310 kts | 221° |
| 2026-05-06 16:30 | 35.08900 | -8.15721 | 22907 ft | 310 kts | 221° |
| 2026-05-06 16:30 | 35.07772 | -8.16838 | 22907 ft | 310 kts | 221° |
| 2026-05-06 16:30 | 35.05539 | -8.19046 | 22907 ft | 310 kts | 221° |
| 2026-05-06 16:30 | 35.03854 | -8.20712 | 22907 ft | 310 kts | 221° |
| 2026-05-06 16:31 | 35.02191 | -8.22357 | 22908 ft | 310 kts | 221° |
| 2026-05-06 16:31 | 35.00512 | -8.24018 | 22908 ft | 310 kts | 221° |
| 2026-05-06 16:31 | 34.98825 | -8.25686 | 22908 ft | 310 kts | 221° |
| 2026-05-06 16:31 | 34.97145 | -8.27345 | 22908 ft | 310 kts | 221° |
| 2026-05-06 16:32 | 34.95473 | -8.28994 | 22908 ft | 310 kts | 221° |
| 2026-05-06 16:32 | 34.93801 | -8.30641 | 22908 ft | 310 kts | 221° |
| 2026-05-06 16:32 | 34.92117 | -8.32299 | 22908 ft | 310 kts | 221° |
| 2026-05-06 16:32 | 34.90450 | -8.33942 | 22908 ft | 310 kts | 221° |
| 2026-05-06 16:33 | 34.88771 | -8.35596 | 22909 ft | 309 kts | 221° |
| 2026-05-06 16:33 | 34.87103 | -8.37238 | 22909 ft | 309 kts | 221° |
| 2026-05-06 16:33 | 34.85435 | -8.38879 | 22909 ft | 309 kts | 221° |
| 2026-05-06 16:34 | 34.82078 | -8.42179 | 22909 ft | 308 kts | 221° |
| 2026-05-06 16:34 | 34.80390 | -8.43837 | 22909 ft | 308 kts | 221° |
| 2026-05-06 16:34 | 34.78735 | -8.45460 | 22909 ft | 308 kts | 221° |
| 2026-05-06 16:34 | 34.77072 | -8.47091 | 22910 ft | 308 kts | 221° |
| 2026-05-06 16:35 | 34.75402 | -8.48728 | 22910 ft | 308 kts | 221° |
| 2026-05-06 16:35 | 34.73737 | -8.50360 | 22910 ft | 307 kts | 221° |
| 2026-05-06 16:35 | 34.72072 | -8.51990 | 22910 ft | 307 kts | 221° |
| 2026-05-06 16:35 | 34.70388 | -8.53638 | 22910 ft | 307 kts | 221° |
| 2026-05-06 16:36 | 34.68714 | -8.55274 | 22910 ft | 307 kts | 221° |
| 2026-05-06 16:36 | 34.67040 | -8.56909 | 22911 ft | 307 kts | 221° |
| 2026-05-06 16:36 | 34.65402 | -8.58509 | 22911 ft | 307 kts | 221° |
| 2026-05-06 16:36 | 34.63729 | -8.60143 | 22911 ft | 307 kts | 221° |
| 2026-05-06 16:37 | 34.62073 | -8.61761 | 22911 ft | 306 kts | 221° |
| 2026-05-06 16:37 | 34.60422 | -8.63373 | 22911 ft | 306 kts | 221° |
| 2026-05-06 16:37 | 34.58757 | -8.64997 | 22911 ft | 306 kts | 221° |
| 2026-05-06 16:37 | 34.57103 | -8.66610 | 22911 ft | 306 kts | 221° |
| 2026-05-06 16:38 | 34.55416 | -8.68252 | 22912 ft | 306 kts | 221° |
| 2026-05-06 16:38 | 34.53778 | -8.69843 | 22912 ft | 306 kts | 221° |
| 2026-05-06 16:38 | 34.52104 | -8.71470 | 22912 ft | 306 kts | 221° |
| 2026-05-06 16:38 | 34.50427 | -8.73101 | 22912 ft | 306 kts | 221° |
| 2026-05-06 16:39 | 34.48802 | -8.74681 | 22912 ft | 306 kts | 221° |
| 2026-05-06 16:39 | 34.47142 | -8.76295 | 22912 ft | 306 kts | 221° |
| 2026-05-06 16:39 | 34.45465 | -8.77924 | 22912 ft | 306 kts | 221° |
| 2026-05-06 16:39 | 34.43844 | -8.79499 | 22912 ft | 306 kts | 221° |
| 2026-05-06 16:40 | 34.42174 | -8.81118 | 22912 ft | 306 kts | 221° |
| 2026-05-06 16:40 | 34.40510 | -8.82733 | 22912 ft | 306 kts | 221° |
| 2026-05-06 16:40 | 34.38844 | -8.84346 | 22912 ft | 306 kts | 221° |
| 2026-05-06 16:40 | 34.37194 | -8.85938 | 22913 ft | 306 kts | 220° |
| 2026-05-06 16:41 | 34.35523 | -8.87542 | 22913 ft | 306 kts | 220° |
| 2026-05-06 16:41 | 34.33855 | -8.89141 | 22913 ft | 306 kts | 220° |
| 2026-05-06 16:41 | 34.32188 | -8.90739 | 22913 ft | 306 kts | 220° |
| 2026-05-06 16:41 | 34.30571 | -8.92292 | 22913 ft | 306 kts | 220° |
| 2026-05-06 16:42 | 34.28903 | -8.93894 | 22913 ft | 306 kts | 220° |
| 2026-05-06 16:42 | 34.27296 | -8.95435 | 22913 ft | 306 kts | 220° |
| 2026-05-06 16:42 | 34.25608 | -8.97053 | 22913 ft | 306 kts | 220° |
| 2026-05-06 16:42 | 34.23933 | -8.98656 | 22913 ft | 306 kts | 220° |
| 2026-05-06 16:43 | 34.22343 | -9.00175 | 22913 ft | 307 kts | 220° |
| 2026-05-06 16:43 | 34.20652 | -9.01789 | 22921 ft | 306 kts | 220° |
| 2026-05-06 16:43 | 34.18979 | -9.03387 | 22916 ft | 307 kts | 220° |
| 2026-05-06 16:43 | 34.17320 | -9.04973 | 22915 ft | 308 kts | 220° |
| 2026-05-06 16:44 | 34.15621 | -9.06596 | 22914 ft | 308 kts | 220° |
| 2026-05-06 16:44 | 34.13938 | -9.08204 | 22916 ft | 308 kts | 220° |
| 2026-05-06 16:44 | 34.12283 | -9.09784 | 22915 ft | 309 kts | 220° |
| 2026-05-06 16:44 | 34.10608 | -9.11382 | 22916 ft | 309 kts | 220° |
| 2026-05-06 16:45 | 34.08921 | -9.12988 | 22915 ft | 309 kts | 220° |
| 2026-05-06 16:45 | 34.07236 | -9.14591 | 22915 ft | 309 kts | 220° |
| 2026-05-06 16:45 | 34.05544 | -9.16202 | 22916 ft | 310 kts | 220° |
| 2026-05-06 16:45 | 34.03898 | -9.17769 | 22917 ft | 310 kts | 220° |
| 2026-05-06 16:46 | 34.02251 | -9.19336 | 22917 ft | 310 kts | 220° |
| 2026-05-06 16:46 | 34.00566 | -9.20938 | 22917 ft | 310 kts | 220° |
| 2026-05-06 16:46 | 33.98895 | -9.22526 | 22918 ft | 310 kts | 220° |
| 2026-05-06 16:46 | 33.97217 | -9.24116 | 22919 ft | 310 kts | 220° |
| 2026-05-06 16:47 | 33.95516 | -9.25727 | 22918 ft | 309 kts | 221° |
| 2026-05-06 16:47 | 33.93830 | -9.27326 | 22918 ft | 309 kts | 221° |
| 2026-05-06 16:47 | 33.92142 | -9.28928 | 22919 ft | 309 kts | 221° |
| 2026-05-06 16:47 | 33.90441 | -9.30540 | 22919 ft | 309 kts | 221° |
| 2026-05-06 16:48 | 33.88754 | -9.32137 | 22918 ft | 309 kts | 221° |
| 2026-05-06 16:48 | 33.87055 | -9.33745 | 22918 ft | 308 kts | 221° |
| 2026-05-06 16:48 | 33.85366 | -9.35344 | 22919 ft | 308 kts | 221° |
| 2026-05-06 16:48 | 33.83672 | -9.36946 | 22919 ft | 308 kts | 221° |
| 2026-05-06 16:49 | 33.81990 | -9.38537 | 22919 ft | 308 kts | 221° |
| 2026-05-06 16:49 | 33.80282 | -9.40151 | 22919 ft | 308 kts | 221° |
| 2026-05-06 16:49 | 33.78568 | -9.41770 | 22920 ft | 308 kts | 221° |
| 2026-05-06 16:49 | 33.76900 | -9.43345 | 22919 ft | 309 kts | 221° |
| 2026-05-06 16:50 | 33.75214 | -9.44937 | 22920 ft | 309 kts | 221° |
| 2026-05-06 16:50 | 33.73482 | -9.46569 | 22919 ft | 309 kts | 221° |
| 2026-05-06 16:50 | 33.71827 | -9.48127 | 22921 ft | 309 kts | 221° |
| 2026-05-06 16:50 | 33.70669 | -9.49217 | 22920 ft | 310 kts | 221° |
| 2026-05-06 16:51 | 33.68461 | -9.51296 | 22921 ft | 310 kts | 221° |
| 2026-05-06 16:51 | 33.66746 | -9.52910 | 22920 ft | 310 kts | 221° |
| 2026-05-06 16:51 | 33.65060 | -9.54496 | 22926 ft | 310 kts | 221° |
| 2026-05-06 16:51 | 33.63349 | -9.56105 | 22927 ft | 310 kts | 221° |
| 2026-05-06 16:52 | 33.61641 | -9.57710 | 22928 ft | 310 kts | 221° |
| 2026-05-06 16:52 | 33.59954 | -9.59295 | 22928 ft | 310 kts | 221° |
| 2026-05-06 16:52 | 33.58254 | -9.60891 | 22930 ft | 310 kts | 221° |
| 2026-05-06 16:52 | 33.56518 | -9.62521 | 22929 ft | 310 kts | 220° |
| 2026-05-06 16:53 | 33.55402 | -9.63569 | 22930 ft | 311 kts | 220° |
| 2026-05-06 16:53 | 33.53110 | -9.65718 | 22930 ft | 311 kts | 220° |
| 2026-05-06 16:53 | 33.51406 | -9.67315 | 22930 ft | 311 kts | 220° |
| 2026-05-06 16:53 | 33.50247 | -9.68401 | 22930 ft | 311 kts | 220° |
| 2026-05-06 16:54 | 33.48555 | -9.69986 | 22930 ft | 311 kts | 220° |
| 2026-05-06 16:54 | 33.46832 | -9.71599 | 22931 ft | 312 kts | 220° |
| 2026-05-06 16:54 | 33.45101 | -9.73218 | 22931 ft | 312 kts | 220° |
| 2026-05-06 16:54 | 33.43378 | -9.74829 | 22931 ft | 312 kts | 220° |
| 2026-05-06 16:55 | 33.41665 | -9.76430 | 22931 ft | 312 kts | 220° |
| 2026-05-06 16:55 | 33.39939 | -9.78042 | 22930 ft | 312 kts | 220° |
| 2026-05-06 16:55 | 33.38218 | -9.79649 | 22928 ft | 312 kts | 220° |
| 2026-05-06 16:55 | 33.36526 | -9.81228 | 22927 ft | 312 kts | 220° |
| 2026-05-06 16:56 | 33.34811 | -9.82829 | 22927 ft | 312 kts | 220° |
| 2026-05-06 16:56 | 33.33123 | -9.84405 | 22927 ft | 312 kts | 220° |
| 2026-05-06 16:56 | 33.31432 | -9.85982 | 22927 ft | 312 kts | 220° |
| 2026-05-06 16:56 | 33.29728 | -9.87569 | 22928 ft | 312 kts | 220° |
| 2026-05-06 16:57 | 33.28023 | -9.89155 | 22928 ft | 312 kts | 220° |
| 2026-05-06 16:57 | 33.26294 | -9.90764 | 22928 ft | 312 kts | 220° |
| 2026-05-06 16:57 | 33.24615 | -9.92324 | 22928 ft | 312 kts | 220° |
| 2026-05-06 16:57 | 33.22899 | -9.93920 | 22928 ft | 312 kts | 220° |
| 2026-05-06 16:58 | 33.21190 | -9.95507 | 22931 ft | 311 kts | 220° |
| 2026-05-06 16:58 | 33.19479 | -9.97095 | 22933 ft | 311 kts | 220° |
| 2026-05-06 16:58 | 33.17757 | -9.98693 | 22934 ft | 311 kts | 220° |
| 2026-05-06 16:58 | 33.16039 | -10.00286 | 22935 ft | 311 kts | 220° |
| 2026-05-06 16:59 | 33.14340 | -10.01860 | 22935 ft | 311 kts | 220° |
| 2026-05-06 16:59 | 33.12619 | -10.03454 | 22935 ft | 312 kts | 220° |
| 2026-05-06 16:59 | 33.10886 | -10.05057 | 22936 ft | 312 kts | 220° |
| 2026-05-06 16:59 | 33.09179 | -10.06637 | 22936 ft | 312 kts | 220° |
| 2026-05-06 17:00 | 33.07469 | -10.08218 | 22936 ft | 312 kts | 220° |
| 2026-05-06 17:00 | 33.05751 | -10.09806 | 22936 ft | 313 kts | 220° |
| 2026-05-06 17:00 | 33.04033 | -10.11394 | 22937 ft | 313 kts | 220° |
| 2026-05-06 17:00 | 33.02332 | -10.12965 | 22937 ft | 313 kts | 220° |
| 2026-05-06 17:01 | 33.00613 | -10.14552 | 22937 ft | 313 kts | 220° |
| 2026-05-06 17:01 | 32.98904 | -10.16129 | 22937 ft | 313 kts | 220° |
| 2026-05-06 17:01 | 32.97178 | -10.17721 | 22937 ft | 313 kts | 220° |
| 2026-05-06 17:01 | 32.95471 | -10.19294 | 22938 ft | 313 kts | 220° |
| 2026-05-06 17:02 | 32.93765 | -10.20868 | 22938 ft | 313 kts | 220° |
| 2026-05-06 17:02 | 32.92073 | -10.22428 | 22938 ft | 313 kts | 220° |
| 2026-05-06 17:02 | 32.90366 | -10.24001 | 22938 ft | 313 kts | 220° |
| 2026-05-06 17:02 | 32.88640 | -10.25589 | 22938 ft | 313 kts | 220° |
| 2026-05-06 17:03 | 32.86905 | -10.27184 | 22937 ft | 313 kts | 220° |
| 2026-05-06 17:03 | 32.85141 | -10.28806 | 22938 ft | 314 kts | 220° |
| 2026-05-06 17:03 | 32.83423 | -10.30384 | 22939 ft | 314 kts | 220° |
| 2026-05-06 17:03 | 32.81668 | -10.31995 | 22939 ft | 314 kts | 220° |
| 2026-05-06 17:04 | 32.79992 | -10.33534 | 22939 ft | 315 kts | 220° |
| 2026-05-06 17:04 | 32.78264 | -10.35118 | 22940 ft | 315 kts | 220° |
| 2026-05-06 17:04 | 32.76564 | -10.36676 | 22940 ft | 315 kts | 220° |
| 2026-05-06 17:04 | 32.74804 | -10.38289 | 22939 ft | 315 kts | 220° |
| 2026-05-06 17:05 | 32.73115 | -10.39835 | 22939 ft | 314 kts | 220° |
| 2026-05-06 17:05 | 32.71361 | -10.41441 | 22940 ft | 314 kts | 220° |
| 2026-05-06 17:05 | 32.69631 | -10.43023 | 22940 ft | 314 kts | 220° |
| 2026-05-06 17:05 | 32.67910 | -10.44597 | 22940 ft | 314 kts | 220° |
| 2026-05-06 17:06 | 32.66168 | -10.46188 | 22940 ft | 314 kts | 220° |
| 2026-05-06 17:06 | 32.64399 | -10.47804 | 22940 ft | 314 kts | 220° |
| 2026-05-06 17:06 | 32.62687 | -10.49367 | 22940 ft | 314 kts | 220° |
| 2026-05-06 17:06 | 32.60933 | -10.50968 | 22940 ft | 314 kts | 220° |
| 2026-05-06 17:07 | 32.59220 | -10.52530 | 22940 ft | 314 kts | 220° |
| 2026-05-06 17:07 | 32.57481 | -10.54115 | 22940 ft | 314 kts | 220° |
| 2026-05-06 17:07 | 32.55759 | -10.55684 | 22940 ft | 314 kts | 220° |
| 2026-05-06 17:07 | 32.54022 | -10.57267 | 22940 ft | 314 kts | 220° |
| 2026-05-06 17:08 | 32.52291 | -10.58842 | 22940 ft | 314 kts | 220° |
| 2026-05-06 17:08 | 32.50565 | -10.60412 | 22941 ft | 314 kts | 220° |
| 2026-05-06 17:08 | 32.48844 | -10.61977 | 22941 ft | 314 kts | 220° |
| 2026-05-06 17:08 | 32.47130 | -10.63535 | 22941 ft | 314 kts | 220° |
| 2026-05-06 17:09 | 32.45408 | -10.65098 | 22941 ft | 314 kts | 220° |
| 2026-05-06 17:09 | 32.43684 | -10.66662 | 22941 ft | 314 kts | 220° |
| 2026-05-06 17:09 | 32.41953 | -10.68230 | 22941 ft | 314 kts | 220° |
| 2026-05-06 17:09 | 32.40235 | -10.69787 | 22941 ft | 314 kts | 220° |
| 2026-05-06 17:10 | 32.38521 | -10.71340 | 22941 ft | 314 kts | 220° |
| 2026-05-06 17:10 | 32.36765 | -10.72930 | 22941 ft | 314 kts | 220° |
| 2026-05-06 17:10 | 32.35029 | -10.74502 | 22941 ft | 313 kts | 220° |
| 2026-05-06 17:10 | 32.33318 | -10.76051 | 22941 ft | 313 kts | 220° |
| 2026-05-06 17:11 | 32.31594 | -10.77611 | 22941 ft | 313 kts | 220° |
| 2026-05-06 17:11 | 32.29855 | -10.79182 | 22941 ft | 313 kts | 220° |
| 2026-05-06 17:11 | 32.28110 | -10.80760 | 22941 ft | 313 kts | 220° |
| 2026-05-06 17:11 | 32.26393 | -10.82310 | 22941 ft | 313 kts | 220° |
| 2026-05-06 17:12 | 32.24644 | -10.83889 | 22941 ft | 313 kts | 220° |
| 2026-05-06 17:12 | 32.22903 | -10.85459 | 22941 ft | 313 kts | 220° |
| 2026-05-06 17:12 | 32.21170 | -10.87019 | 22942 ft | 313 kts | 220° |
| 2026-05-06 17:12 | 32.19398 | -10.88615 | 22942 ft | 313 kts | 220° |
| 2026-05-06 17:13 | 32.17659 | -10.90181 | 22942 ft | 313 kts | 220° |
| 2026-05-06 17:13 | 32.15919 | -10.91748 | 22942 ft | 313 kts | 220° |
| 2026-05-06 17:13 | 32.14171 | -10.93322 | 22942 ft | 313 kts | 220° |
| 2026-05-06 17:13 | 32.12510 | -10.94816 | 22942 ft | 313 kts | 220° |
| 2026-05-06 17:14 | 32.10762 | -10.96388 | 22942 ft | 313 kts | 220° |
| 2026-05-06 17:14 | 32.09018 | -10.97955 | 22942 ft | 313 kts | 220° |
| 2026-05-06 17:14 | 32.07307 | -10.99493 | 22942 ft | 314 kts | 220° |
| 2026-05-06 17:14 | 32.05592 | -11.01031 | 22942 ft | 314 kts | 220° |
| 2026-05-06 17:15 | 32.03877 | -11.02568 | 22942 ft | 314 kts | 220° |
| 2026-05-06 17:15 | 32.02148 | -11.04118 | 22942 ft | 314 kts | 220° |
| 2026-05-06 17:15 | 32.00404 | -11.05681 | 22942 ft | 314 kts | 220° |
| 2026-05-06 17:15 | 31.98656 | -11.07247 | 22943 ft | 314 kts | 220° |
| 2026-05-06 17:16 | 31.96906 | -11.08814 | 22943 ft | 313 kts | 220° |
| 2026-05-06 17:16 | 31.95184 | -11.10354 | 22943 ft | 313 kts | 220° |
| 2026-05-06 17:16 | 31.93478 | -11.11879 | 22943 ft | 313 kts | 220° |
| 2026-05-06 17:16 | 31.91760 | -11.13416 | 22943 ft | 313 kts | 220° |
| 2026-05-06 17:17 | 31.90017 | -11.14975 | 22942 ft | 312 kts | 220° |
| 2026-05-06 17:17 | 31.88296 | -11.16513 | 22945 ft | 312 kts | 220° |
| 2026-05-06 17:17 | 31.86569 | -11.18055 | 22948 ft | 312 kts | 220° |
| 2026-05-06 17:17 | 31.84859 | -11.19581 | 22949 ft | 312 kts | 220° |
| 2026-05-06 17:18 | 31.83132 | -11.21119 | 22950 ft | 312 kts | 220° |
| 2026-05-06 17:18 | 31.81995 | -11.22133 | 22950 ft | 311 kts | 220° |
| 2026-05-06 17:18 | 31.79690 | -11.24185 | 22951 ft | 312 kts | 220° |
| 2026-05-06 17:18 | 31.77957 | -11.25730 | 22951 ft | 311 kts | 220° |
| 2026-05-06 17:19 | 31.76241 | -11.27258 | 22951 ft | 311 kts | 220° |
| 2026-05-06 17:19 | 31.74513 | -11.28797 | 22952 ft | 311 kts | 220° |
| 2026-05-06 17:19 | 31.72779 | -11.30340 | 22952 ft | 311 kts | 220° |
| 2026-05-06 17:19 | 31.71029 | -11.31897 | 22952 ft | 311 kts | 220° |
| 2026-05-06 17:20 | 31.69312 | -11.33423 | 22953 ft | 311 kts | 220° |
| 2026-05-06 17:20 | 31.67555 | -11.34985 | 22953 ft | 311 kts | 220° |
| 2026-05-06 17:20 | 31.65852 | -11.36497 | 22953 ft | 311 kts | 220° |
| 2026-05-06 17:20 | 31.64116 | -11.38039 | 22951 ft | 311 kts | 220° |
| 2026-05-06 17:21 | 31.62967 | -11.39059 | 22949 ft | 311 kts | 220° |
| 2026-05-06 17:21 | 31.61221 | -11.40608 | 22948 ft | 311 kts | 220° |
| 2026-05-06 17:21 | 31.59493 | -11.42140 | 22948 ft | 311 kts | 220° |
| 2026-05-06 17:21 | 31.57794 | -11.43646 | 22948 ft | 311 kts | 220° |
| 2026-05-06 17:22 | 31.56076 | -11.45167 | 22948 ft | 311 kts | 220° |
| 2026-05-06 17:22 | 31.54344 | -11.46701 | 22949 ft | 311 kts | 220° |
| 2026-05-06 17:22 | 31.52603 | -11.48240 | 22949 ft | 311 kts | 220° |
| 2026-05-06 17:22 | 31.50865 | -11.49775 | 22944 ft | 312 kts | 220° |
| 2026-05-06 17:23 | 31.49099 | -11.51335 | 22938 ft | 312 kts | 220° |
| 2026-05-06 17:23 | 31.47367 | -11.52866 | 22936 ft | 312 kts | 220° |
| 2026-05-06 17:23 | 31.45619 | -11.54410 | 22935 ft | 312 kts | 220° |
| 2026-05-06 17:23 | 31.43899 | -11.55929 | 22935 ft | 312 kts | 220° |
| 2026-05-06 17:24 | 31.42203 | -11.57425 | 22935 ft | 312 kts | 220° |
| 2026-05-06 17:24 | 31.40451 | -11.58971 | 22935 ft | 312 kts | 220° |
| 2026-05-06 17:24 | 31.38711 | -11.60505 | 22935 ft | 312 kts | 220° |
| 2026-05-06 17:24 | 31.36981 | -11.62030 | 22935 ft | 312 kts | 220° |
| 2026-05-06 17:25 | 31.35264 | -11.63542 | 22936 ft | 312 kts | 220° |
| 2026-05-06 17:25 | 31.33543 | -11.65057 | 22936 ft | 312 kts | 220° |
| 2026-05-06 17:25 | 31.31831 | -11.66565 | 22936 ft | 312 kts | 220° |
| 2026-05-06 17:25 | 31.30141 | -11.68051 | 22936 ft | 312 kts | 220° |
| 2026-05-06 17:26 | 31.28402 | -11.69580 | 22936 ft | 312 kts | 220° |
| 2026-05-06 17:26 | 31.26675 | -11.71098 | 22937 ft | 312 kts | 220° |
| 2026-05-06 17:26 | 31.24927 | -11.72634 | 22937 ft | 312 kts | 220° |
| 2026-05-06 17:26 | 31.23193 | -11.74157 | 22937 ft | 312 kts | 220° |
| 2026-05-06 17:27 | 31.21464 | -11.75674 | 22937 ft | 312 kts | 220° |
| 2026-05-06 17:27 | 31.19708 | -11.77215 | 22937 ft | 312 kts | 220° |
| 2026-05-06 17:27 | 31.17960 | -11.78747 | 22938 ft | 312 kts | 220° |
| 2026-05-06 17:27 | 31.16206 | -11.80284 | 22938 ft | 312 kts | 220° |
| 2026-05-06 17:28 | 31.14481 | -11.81796 | 22938 ft | 312 kts | 220° |
| 2026-05-06 17:28 | 31.12727 | -11.83334 | 22938 ft | 312 kts | 220° |
| 2026-05-06 17:28 | 31.10996 | -11.84852 | 22939 ft | 312 kts | 220° |
| 2026-05-06 17:28 | 31.09264 | -11.86369 | 22939 ft | 312 kts | 220° |
| 2026-05-06 17:29 | 31.07512 | -11.87902 | 22939 ft | 312 kts | 220° |
| 2026-05-06 17:29 | 31.05779 | -11.89417 | 22940 ft | 312 kts | 220° |
| 2026-05-06 17:29 | 31.04062 | -11.90917 | 22940 ft | 312 kts | 220° |
| 2026-05-06 17:29 | 31.02293 | -11.92462 | 22940 ft | 312 kts | 220° |
| 2026-05-06 17:30 | 31.00552 | -11.93983 | 22941 ft | 312 kts | 220° |
| 2026-05-06 17:30 | 30.98793 | -11.95520 | 22941 ft | 312 kts | 220° |
| 2026-05-06 17:30 | 30.97057 | -11.97036 | 22942 ft | 312 kts | 220° |
| 2026-05-06 17:30 | 30.95297 | -11.98571 | 22942 ft | 312 kts | 220° |
| 2026-05-06 17:31 | 30.93566 | -12.00080 | 22943 ft | 311 kts | 220° |
| 2026-05-06 17:31 | 30.91834 | -12.01589 | 22953 ft | 311 kts | 220° |
| 2026-05-06 17:31 | 30.90098 | -12.03098 | 22958 ft | 312 kts | 220° |
| 2026-05-06 17:31 | 30.88368 | -12.04599 | 22961 ft | 312 kts | 220° |
| 2026-05-06 17:32 | 30.86631 | -12.06108 | 22962 ft | 313 kts | 220° |
| 2026-05-06 17:32 | 30.84884 | -12.07626 | 22962 ft | 313 kts | 220° |
| 2026-05-06 17:32 | 30.83143 | -12.09139 | 22962 ft | 313 kts | 220° |
| 2026-05-06 17:32 | 30.81401 | -12.10651 | 22963 ft | 313 kts | 220° |
| 2026-05-06 17:33 | 30.79654 | -12.12167 | 22963 ft | 313 kts | 220° |
| 2026-05-06 17:33 | 30.77892 | -12.13696 | 22963 ft | 313 kts | 220° |
| 2026-05-06 17:33 | 30.76141 | -12.15216 | 22963 ft | 313 kts | 220° |
| 2026-05-06 17:33 | 30.74428 | -12.16702 | 22964 ft | 313 kts | 220° |
| 2026-05-06 17:34 | 30.72678 | -12.18221 | 22964 ft | 313 kts | 220° |
| 2026-05-06 17:34 | 30.70931 | -12.19735 | 22964 ft | 314 kts | 220° |
| 2026-05-06 17:34 | 30.69170 | -12.21259 | 22964 ft | 314 kts | 220° |
| 2026-05-06 17:34 | 30.67404 | -12.22788 | 22964 ft | 314 kts | 220° |
| 2026-05-06 17:35 | 30.65650 | -12.24305 | 22965 ft | 313 kts | 220° |
| 2026-05-06 17:35 | 30.63924 | -12.25797 | 22965 ft | 314 kts | 220° |
| 2026-05-06 17:35 | 30.62150 | -12.27330 | 22965 ft | 314 kts | 220° |
| 2026-05-06 17:36 | 30.58664 | -12.30342 | 22966 ft | 314 kts | 220° |
| 2026-05-06 17:36 | 30.56918 | -12.31850 | 22966 ft | 313 kts | 220° |
| 2026-05-06 17:36 | 30.55150 | -12.33377 | 22966 ft | 314 kts | 220° |
| 2026-05-06 17:36 | 30.53415 | -12.34873 | 22966 ft | 313 kts | 220° |
| 2026-05-06 17:37 | 30.51665 | -12.36381 | 22966 ft | 314 kts | 220° |
| 2026-05-06 17:37 | 30.49893 | -12.37907 | 22967 ft | 314 kts | 220° |
| 2026-05-06 17:37 | 30.48138 | -12.39417 | 22967 ft | 313 kts | 219° |
| 2026-05-06 17:37 | 30.46381 | -12.40929 | 22967 ft | 313 kts | 219° |
| 2026-05-06 17:38 | 30.44630 | -12.42435 | 22967 ft | 314 kts | 219° |
| 2026-05-06 17:38 | 30.42871 | -12.43948 | 22968 ft | 314 kts | 219° |
| 2026-05-06 17:38 | 30.41125 | -12.45448 | 22968 ft | 313 kts | 219° |
| 2026-05-06 17:38 | 30.39366 | -12.46959 | 22968 ft | 314 kts | 219° |
| 2026-05-06 17:39 | 30.37602 | -12.48475 | 22968 ft | 314 kts | 219° |
| 2026-05-06 17:39 | 30.35841 | -12.49988 | 22969 ft | 314 kts | 219° |
| 2026-05-06 17:39 | 30.34094 | -12.51488 | 22969 ft | 314 kts | 219° |
| 2026-05-06 17:39 | 30.32352 | -12.52981 | 22969 ft | 314 kts | 219° |
| 2026-05-06 17:40 | 30.30602 | -12.54480 | 22969 ft | 314 kts | 219° |
| 2026-05-06 17:40 | 30.28887 | -12.55948 | 22970 ft | 314 kts | 219° |
| 2026-05-06 17:40 | 30.27114 | -12.57466 | 22970 ft | 314 kts | 219° |
| 2026-05-06 17:40 | 30.25362 | -12.58965 | 22970 ft | 314 kts | 219° |
| 2026-05-06 17:41 | 30.23585 | -12.60483 | 22970 ft | 314 kts | 219° |
| 2026-05-06 17:41 | 30.21883 | -12.61936 | 22971 ft | 314 kts | 219° |
| 2026-05-06 17:41 | 30.20097 | -12.63460 | 22971 ft | 314 kts | 219° |
| 2026-05-06 17:41 | 30.18343 | -12.64957 | 22971 ft | 314 kts | 219° |
| 2026-05-06 17:42 | 30.16595 | -12.66449 | 22972 ft | 314 kts | 219° |
| 2026-05-06 17:42 | 30.14845 | -12.67942 | 22972 ft | 314 kts | 219° |
| 2026-05-06 17:42 | 30.13066 | -12.69460 | 22972 ft | 314 kts | 219° |
| 2026-05-06 17:42 | 30.11312 | -12.70957 | 22973 ft | 315 kts | 219° |
| 2026-05-06 17:43 | 30.09485 | -12.72399 | 22973 ft | 316 kts | 215° |
| 2026-05-06 17:43 | 30.07584 | -12.73649 | 22973 ft | 317 kts | 212° |
| 2026-05-06 17:43 | 30.05633 | -12.74855 | 22974 ft | 318 kts | 212° |
| 2026-05-06 17:43 | 30.03691 | -12.76055 | 22974 ft | 318 kts | 212° |
| 2026-05-06 17:44 | 30.01757 | -12.77270 | 22974 ft | 318 kts | 212° |
| 2026-05-06 17:44 | 29.99813 | -12.78509 | 22975 ft | 318 kts | 213° |
| 2026-05-06 17:44 | 29.97870 | -12.79752 | 22975 ft | 317 kts | 213° |
| 2026-05-06 17:44 | 29.95939 | -12.80985 | 22972 ft | 317 kts | 213° |
| 2026-05-06 17:45 | 29.94010 | -12.82216 | 22969 ft | 317 kts | 213° |
| 2026-05-06 17:45 | 29.92086 | -12.83443 | 22968 ft | 317 kts | 213° |
| 2026-05-06 17:45 | 29.90139 | -12.84687 | 22968 ft | 317 kts | 213° |
| 2026-05-06 17:45 | 29.88237 | -12.85903 | 22968 ft | 316 kts | 213° |
| 2026-05-06 17:46 | 29.86298 | -12.87143 | 22969 ft | 316 kts | 213° |
| 2026-05-06 17:46 | 29.84393 | -12.88360 | 22969 ft | 316 kts | 213° |
| 2026-05-06 17:46 | 29.82476 | -12.89584 | 22970 ft | 316 kts | 213° |
| 2026-05-06 17:46 | 29.80553 | -12.90807 | 22971 ft | 316 kts | 213° |
| 2026-05-06 17:47 | 29.78646 | -12.92019 | 22971 ft | 316 kts | 213° |
| 2026-05-06 17:47 | 29.77362 | -12.92835 | 22972 ft | 316 kts | 213° |
| 2026-05-06 17:47 | 29.75446 | -12.94054 | 22972 ft | 316 kts | 213° |
| 2026-05-06 17:47 | 29.73506 | -12.95288 | 22973 ft | 316 kts | 213° |
| 2026-05-06 17:48 | 29.71570 | -12.96518 | 22974 ft | 316 kts | 213° |
| 2026-05-06 17:48 | 29.69655 | -12.97734 | 22974 ft | 316 kts | 213° |
| 2026-05-06 17:48 | 29.67741 | -12.98949 | 22975 ft | 316 kts | 213° |
| 2026-05-06 17:48 | 29.65782 | -13.00192 | 22976 ft | 316 kts | 213° |
| 2026-05-06 17:49 | 29.63904 | -13.01382 | 22976 ft | 316 kts | 213° |
| 2026-05-06 17:49 | 29.61983 | -13.02600 | 22977 ft | 316 kts | 213° |
| 2026-05-06 17:49 | 29.60063 | -13.03816 | 22978 ft | 315 kts | 213° |
| 2026-05-06 17:49 | 29.58124 | -13.05042 | 22978 ft | 316 kts | 213° |
| 2026-05-06 17:50 | 29.56184 | -13.06268 | 22979 ft | 316 kts | 213° |
| 2026-05-06 17:50 | 29.54267 | -13.07481 | 22980 ft | 316 kts | 213° |
| 2026-05-06 17:50 | 29.52361 | -13.08686 | 22980 ft | 316 kts | 213° |
| 2026-05-06 17:50 | 29.50455 | -13.09892 | 22970 ft | 309 kts | 213° |
| 2026-05-06 17:51 | 29.48602 | -13.11057 | 22976 ft | 301 kts | 213° |
| 2026-05-06 17:51 | 29.46812 | -13.12181 | 22978 ft | 294 kts | 213° |
| 2026-05-06 17:51 | 29.45019 | -13.13309 | 22980 ft | 288 kts | 213° |
| 2026-05-06 17:51 | 29.43284 | -13.14404 | 22981 ft | 283 kts | 213° |
| 2026-05-06 17:52 | 29.41567 | -13.15489 | 22982 ft | 278 kts | 213° |
| 2026-05-06 17:52 | 29.39866 | -13.16564 | 22982 ft | 274 kts | 213° |
| 2026-05-06 17:52 | 29.38205 | -13.17613 | 22983 ft | 270 kts | 213° |
| 2026-05-06 17:52 | 29.36591 | -13.18631 | 22992 ft | 269 kts | 213° |
| 2026-05-06 17:53 | 29.34929 | -13.19648 | 22988 ft | 271 kts | 212° |
| 2026-05-06 17:53 | 29.33224 | -13.20623 | 22988 ft | 272 kts | 211° |
| 2026-05-06 17:53 | 29.31518 | -13.21549 | 22987 ft | 273 kts | 210° |
| 2026-05-06 17:53 | 29.29792 | -13.22465 | 22988 ft | 274 kts | 210° |
| 2026-05-06 17:54 | 29.28090 | -13.23370 | 22989 ft | 274 kts | 210° |
| 2026-05-06 17:54 | 29.26354 | -13.24304 | 22989 ft | 275 kts | 210° |
| 2026-05-06 17:54 | 29.24621 | -13.25247 | 22990 ft | 275 kts | 210° |
| 2026-05-06 17:54 | 29.22904 | -13.26187 | 22990 ft | 275 kts | 210° |
| 2026-05-06 17:55 | 29.21168 | -13.27140 | 22983 ft | 276 kts | 210° |
| 2026-05-06 17:55 | 29.19423 | -13.28099 | 22749 ft | 280 kts | 211° |
| 2026-05-06 17:55 | 29.17705 | -13.29035 | 22492 ft | 270 kts | 211° |
| 2026-05-06 17:55 | 29.16016 | -13.29955 | 22249 ft | 270 kts | 211° |
| 2026-05-06 17:56 | 29.14294 | -13.30904 | 22016 ft | 278 kts | 210° |
| 2026-05-06 17:56 | 29.12535 | -13.31881 | 21770 ft | 286 kts | 210° |
| 2026-05-06 17:56 | 29.10707 | -13.32895 | 21519 ft | 294 kts | 210° |
| 2026-05-06 17:56 | 29.08851 | -13.33918 | 21270 ft | 300 kts | 210° |
| 2026-05-06 17:57 | 29.06934 | -13.34966 | 21116 ft | 302 kts | 210° |
| 2026-05-06 17:57 | 29.05033 | -13.36000 | 21051 ft | 301 kts | 210° |
| 2026-05-06 17:57 | 29.03185 | -13.37002 | 21014 ft | 299 kts | 210° |
| 2026-05-06 17:57 | 29.01301 | -13.38025 | 21001 ft | 297 kts | 210° |
| 2026-05-06 17:58 | 28.99457 | -13.39028 | 20995 ft | 295 kts | 209° |
| 2026-05-06 17:58 | 28.97527 | -13.40080 | 20600 ft | 306 kts | 209° |
| 2026-05-06 17:58 | 28.95569 | -13.41158 | 20114 ft | 314 kts | 209° |
| 2026-05-06 17:58 | 28.93592 | -13.42239 | 19639 ft | 318 kts | 209° |
| 2026-05-06 17:59 | 28.91576 | -13.43338 | 19154 ft | 322 kts | 209° |
| 2026-05-06 17:59 | 28.89497 | -13.44470 | 18655 ft | 326 kts | 209° |
| 2026-05-06 17:59 | 28.87458 | -13.45579 | 18160 ft | 327 kts | 209° |
| 2026-05-06 17:59 | 28.86691 | -13.45995 | 17979 ft | 327 kts | 209° |
| 2026-05-06 18:00 | 28.84882 | -13.46979 | 17544 ft | 327 kts | 209° |
| 2026-05-06 18:00 | 28.82806 | -13.48105 | 17048 ft | 325 kts | 209° |
| 2026-05-06 18:00 | 28.80735 | -13.49229 | 16553 ft | 325 kts | 209° |
| 2026-05-06 18:00 | 28.78699 | -13.50336 | 16065 ft | 324 kts | 208° |
| 2026-05-06 18:01 | 28.76668 | -13.51440 | 15579 ft | 324 kts | 208° |
| 2026-05-06 18:01 | 28.74635 | -13.52545 | 15092 ft | 323 kts | 208° |
| 2026-05-06 18:01 | 28.72595 | -13.53653 | 14603 ft | 323 kts | 208° |
| 2026-05-06 18:01 | 28.72040 | -13.53955 | 14470 ft | 323 kts | 208° |
| 2026-05-06 18:02 | 28.70428 | -13.54834 | 14083 ft | 324 kts | 208° |
| 2026-05-06 18:02 | 28.68371 | -13.55949 | 13591 ft | 325 kts | 208° |
| 2026-05-06 18:02 | 28.66331 | -13.57052 | 13102 ft | 325 kts | 208° |
| 2026-05-06 18:02 | 28.64307 | -13.58146 | 12618 ft | 325 kts | 208° |
| 2026-05-06 18:03 | 28.62257 | -13.59254 | 12127 ft | 325 kts | 208° |
| 2026-05-06 18:03 | 28.60210 | -13.60362 | 11636 ft | 325 kts | 208° |
| 2026-05-06 18:03 | 28.58179 | -13.61462 | 11150 ft | 325 kts | 207° |
| 2026-05-06 18:03 | 28.56152 | -13.62560 | 10665 ft | 325 kts | 207° |
| 2026-05-06 18:04 | 28.54132 | -13.63654 | 10230 ft | 324 kts | 207° |
| 2026-05-06 18:04 | 28.52126 | -13.64728 | 10095 ft | 314 kts | 206° |
| 2026-05-06 18:04 | 28.50548 | -13.65533 | 10075 ft | 302 kts | 205° |
| 2026-05-06 18:04 | 28.49713 | -13.65943 | 9991 ft | 291 kts | 205° |
| 2026-05-06 18:05 | 28.47861 | -13.66844 | 9740 ft | 287 kts | 206° |
| 2026-05-06 18:05 | 28.46131 | -13.67820 | 9495 ft | 283 kts | 210° |
| 2026-05-06 18:05 | 28.44399 | -13.68877 | 9242 ft | 280 kts | 210° |
| 2026-05-06 18:05 | 28.42739 | -13.69908 | 8996 ft | 276 kts | 210° |
| 2026-05-06 18:06 | 28.41096 | -13.70934 | 8750 ft | 274 kts | 210° |
| 2026-05-06 18:06 | 28.39442 | -13.71966 | 8492 ft | 261 kts | 210° |
| 2026-05-06 18:06 | 28.37944 | -13.72895 | 8241 ft | 244 kts | 210° |
| 2026-05-06 18:06 | 28.36538 | -13.73765 | 7989 ft | 229 kts | 211° |
| 2026-05-06 18:07 | 28.35190 | -13.74598 | 7734 ft | 216 kts | 211° |
| 2026-05-06 18:07 | 28.33912 | -13.75383 | 7522 ft | 202 kts | 211° |
| 2026-05-06 18:07 | 28.32721 | -13.76117 | 7262 ft | 188 kts | 211° |
| 2026-05-06 18:07 | 28.31596 | -13.76812 | 7071 ft | 186 kts | 210° |
| 2026-05-06 18:08 | 28.30444 | -13.77533 | 6836 ft | 197 kts | 211° |
| 2026-05-06 18:08 | 28.29213 | -13.78304 | 6594 ft | 206 kts | 210° |
| 2026-05-06 18:08 | 28.27928 | -13.79108 | 6349 ft | 214 kts | 210° |
| 2026-05-06 18:08 | 28.26614 | -13.79906 | 6084 ft | 210 kts | 210° |
| 2026-05-06 18:09 | 28.25335 | -13.80649 | 5828 ft | 204 kts | 210° |
| 2026-05-06 18:09 | 28.24373 | -13.81734 | 5549 ft | 191 kts | 246° |
| 2026-05-06 18:09 | 28.24194 | -13.83136 | 5275 ft | 177 kts | 284° |
| 2026-05-06 18:09 | 28.24685 | -13.84401 | 4825 ft | 179 kts | 305° |
| 2026-05-06 18:10 | 28.25528 | -13.85458 | 4298 ft | 185 kts | 327° |
| 2026-05-06 18:10 | 28.26692 | -13.86096 | 3784 ft | 188 kts | 341° |
| 2026-05-06 18:10 | 28.27916 | -13.86607 | 3305 ft | 183 kts | 342° |
| 2026-05-06 18:10 | 28.28699 | -13.86818 | 3055 ft | 178 kts | 354° |
| 2026-05-06 18:11 | 28.29849 | -13.86893 | 2821 ft | 165 kts | 1° |
| 2026-05-06 18:11 | 28.30999 | -13.86895 | 2610 ft | 163 kts | 3° |
| 2026-05-06 18:11 | 28.32067 | -13.86877 | 2396 ft | 153 kts | 4° |
| 2026-05-06 18:11 | 28.33095 | -13.86846 | 2204 ft | 146 kts | 5° |
| 2026-05-06 18:12 | 28.34121 | -13.86800 | 2017 ft | 148 kts | 5° |
| 2026-05-06 18:12 | 28.35088 | -13.86756 | 1813 ft | 137 kts | 5° |
| 2026-05-06 18:12 | 28.36055 | -13.86711 | 1648 ft | 140 kts | 5° |
| 2026-05-06 18:12 | 28.37034 | -13.86666 | 1448 ft | 137 kts | 5° |
| 2026-05-06 18:13 | 28.37997 | -13.86625 | 1270 ft | 137 kts | 5° |
| 2026-05-06 18:13 | 28.38924 | -13.86588 | 1056 ft | 132 kts | 5° |
| 2026-05-06 18:13 | 28.39802 | -13.86556 | 830 ft | 126 kts | 4° |
| 2026-05-06 18:13 | 28.40345 | -13.86537 | 700 ft | 125 kts | 5° |
| 2026-05-06 18:14 | 28.40720 | -13.86526 | 609 ft | 125 kts | 4° |
| 2026-05-06 18:14 | 28.41565 | -13.86500 | 440 ft | 121 kts | 4° |
| 2026-05-06 18:14 | 28.42410 | -13.86481 | 320 ft | 120 kts | 4° |
| 2026-05-06 18:14 | 28.43235 | -13.86449 | 219 ft | 120 kts | 5° |
| 2026-05-06 18:15 | 28.44036 | -13.86418 | 110 ft | 120 kts | 5° |
| 2026-05-06 18:15 | 28.44752 | -13.86393 | 66 ft | 92 kts | 4° |
| 2026-05-06 18:15 | 28.45131 | -13.86380 | 65 ft | 33 kts | 360° |
| 2026-05-06 18:15 | 28.45155 | -13.86380 | 65 ft | 16 kts | 1° |
| 2026-05-06 18:16 | 28.45157 | -13.86380 | 65 ft | 3 kts | 1° |
| 2026-05-06 18:16 | 28.45242 | -13.86378 | 65 ft | 20 kts | 1° |
| 2026-05-06 18:16 | 28.45387 | -13.86392 | 65 ft | 17 kts | 327° |
| 2026-05-06 18:16 | 28.45400 | -13.86416 | 65 ft | 3 kts | 269° |
| 2026-05-06 18:17 | 28.45401 | -13.86451 | 65 ft | 14 kts | 272° |
| 2026-05-06 18:17 | 28.45417 | -13.86559 | 65 ft | 0 kts | 312° |
| 2026-05-06 18:17 | 28.45413 | -13.86569 | 65 ft | 5 kts | 219° |
| 2026-05-06 18:18 | 28.45366 | -13.86641 | 65 ft | 15 kts | 274° |
| 2026-05-06 18:18 | 28.45373 | -13.86706 | 65 ft | 8 kts | 295° |
| 2026-05-06 18:18 | 28.45433 | -13.86732 | 65 ft | 6 kts | 7° |
| 2026-05-06 18:18 | 28.45452 | -13.86730 | 65 ft | 4 kts | 5° |
| 2026-05-06 18:19 | 28.45472 | -13.86738 | 65 ft | 4 kts | 312° |
| 2026-05-06 18:19 | 28.45480 | -13.86774 | 65 ft | 4 kts | 271° |
| 2026-05-06 18:19 | 28.45481 | -13.86805 | 65 ft | 3 kts | 271° |
| 2026-05-06 18:19 | 28.45481 | -13.86812 | 65 ft | 0 kts | 271° |
| 2026-05-06 18:20 | 28.45481 | -13.86816 | 65 ft | 0 kts | 271° |